Time;durP1;ratioP1;P1;durP2;ratioP2;P2;SDS_P1;SDS_P2;PMS_P1;PMS_P2;Temp;Humidity;BMP_temperature;BMP_pressure;BME280_temperature;BME280_humidity;BME280_pressure;Samples;Min_cycle;Max_cycle;Signal;HPM_P1;HPM_P2
2022/06/28 00:02:11;;;;;;;0.60;0.50;;;;;;;12.91;100.00;99923.44;7396575;19;20527;-87
2022/06/28 00:04:37;;;;;;;0.15;0.15;;;;;;;12.91;100.00;99921.41;7396764;19;20035;-87
2022/06/28 00:07:03;;;;;;;3.50;0.70;;;;;;;12.95;100.00;99924.00;7394739;19;20026;-87
2022/06/28 00:09:29;;;;;;;0.85;0.73;;;;;;;12.96;100.00;99917.16;7398009;19;20486;-87
2022/06/28 00:11:55;;;;;;;1.58;0.47;;;;;;;12.98;100.00;99925.81;7394859;19;20011;-87
2022/06/28 00:17:06;;;;;;;7.65;0.47;;;;;;;13.00;100.00;99928.09;7395169;19;20539;-87
2022/06/28 00:19:33;;;;;;;0.60;0.20;;;;;;;13.03;100.00;99927.91;7397604;19;20014;-87
2022/06/28 00:21:59;;;;;;;13.65;1.20;;;;;;;13.04;100.00;99932.22;7395728;19;20014;-86
2022/06/28 00:24:25;;;;;;;0.63;0.55;;;;;;;13.03;100.00;99927.13;7394130;19;20015;-86
2022/06/28 00:26:52;;;;;;;3.72;0.30;;;;;;;13.03;100.00;99921.56;7393794;19;20014;-86
2022/06/28 00:29:19;;;;;;;0.28;0.28;;;;;;;13.02;100.00;99917.97;7396995;19;20014;-87
2022/06/28 00:31:45;;;;;;;5.53;0.98;;;;;;;12.98;100.00;99919.44;7391863;19;20356;-87
2022/06/28 00:34:11;;;;;;;1.15;0.47;;;;;;;12.93;100.00;99926.50;7397059;19;20019;-86
2022/06/28 00:36:38;;;;;;;1.35;0.43;;;;;;;12.86;100.00;99919.31;7393158;19;20011;-86
2022/06/28 00:39:04;;;;;;;0.40;0.30;;;;;;;12.80;100.00;99923.28;7397775;19;20464;-87
2022/06/28 00:41:30;;;;;;;0.10;0.10;;;;;;;12.69;100.00;99920.38;7394259;19;20562;-87
2022/06/28 00:43:57;;;;;;;2.60;0.47;;;;;;;12.60;100.00;99924.09;7393976;19;20015;-87
2022/06/28 00:46:23;;;;;;;0.47;0.30;;;;;;;12.47;100.00;99922.88;7392684;19;20010;-86
2022/06/28 00:48:50;;;;;;;0.60;0.45;;;;;;;12.34;100.00;99911.25;7394765;19;20014;-87
2022/06/28 00:51:16;;;;;;;9.98;0.40;;;;;;;12.19;100.00;99923.22;7391688;19;20025;-87
2022/06/28 00:53:43;;;;;;;0.47;0.47;;;;;;;12.08;100.00;99928.63;7393106;19;20023;-87
2022/06/28 00:56:09;;;;;;;0.10;0.10;;;;;;;11.93;100.00;99932.72;7392849;19;20035;-86
2022/06/28 00:58:35;;;;;;;0.38;0.38;;;;;;;11.78;100.00;99929.91;7395114;19;20019;-87
2022/06/28 01:01:02;;;;;;;0.60;0.52;;;;;;;11.68;100.00;99928.50;7394274;19;20022;-86
2022/06/28 01:03:28;;;;;;;0.15;0.10;;;;;;;11.63;100.00;99931.91;7393668;19;20015;-87
2022/06/28 01:05:54;;;;;;;1.95;0.10;;;;;;;11.56;100.00;99935.09;7393763;19;20022;-86
2022/06/28 01:08:25;;;;;;;0.40;0.13;;;;;;;11.47;100.00;99926.03;7394761;19;20018;-86
2022/06/28 01:10:52;;;;;;;0.25;0.25;;;;;;;11.45;100.00;99937.69;7392628;19;20018;-86
2022/06/28 01:13:20;;;;;;;0.20;0.20;;;;;;;11.42;100.00;99933.84;7392414;19;20006;-87
2022/06/28 01:15:48;;;;;;;0.30;0.30;;;;;;;11.38;100.00;99926.91;7393738;19;20010;-86
2022/06/28 01:18:16;;;;;;;1.23;0.25;;;;;;;11.33;100.00;99924.78;7394197;19;20038;-87
2022/06/28 01:20:45;;;;;;;1.75;0.95;;;;;;;11.31;100.00;99930.06;7393757;19;20022;-87
2022/06/28 01:23:19;;;;;;;1.95;0.98;;;;;;;11.29;100.00;99930.56;7393016;19;20010;-86
2022/06/28 01:25:48;;;;;;;0.20;0.15;;;;;;;11.23;100.00;99926.91;7392051;19;20010;-87
2022/06/28 01:28:19;;;;;;;0.45;0.45;;;;;;;11.22;100.00;99930.13;7393517;19;20010;-87
2022/06/28 01:30:50;;;;;;;0.30;0.30;;;;;;;11.16;100.00;99927.25;7393456;19;20018;-86
2022/06/28 01:33:25;;;;;;;0.70;0.35;;;;;;;11.12;100.00;99925.91;7407776;19;20343;-87
2022/06/28 01:35:53;;;;;;;0.35;0.35;;;;;;;11.09;100.00;99924.84;7407277;19;20022;-86
2022/06/28 01:38:22;;;;;;;0.20;0.20;;;;;;;11.07;100.00;99929.34;7405825;19;20017;-87
2022/06/28 01:40:49;;;;;;;7.13;0.63;;;;;;;11.03;100.00;99939.91;7405675;19;20045;-87
2022/06/28 01:43:18;;;;;;;6.70;0.32;;;;;;;11.01;100.00;99931.25;7405657;19;20018;-86
2022/06/28 01:45:47;;;;;;;7.57;0.28;;;;;;;11.00;100.00;99932.53;7404789;19;20488;-87
2022/06/28 01:48:17;;;;;;;0.15;0.15;;;;;;;10.98;100.00;99923.88;7405621;19;20022;-86
2022/06/28 01:51:01;;;;;;;1.50;0.60;;;;;;;10.97;100.00;99930.66;7404177;19;20006;-86
2022/06/28 01:53:28;;;;;;;1.45;0.30;;;;;;;11.07;100.00;99935.69;7405185;19;20015;-86
2022/06/28 01:56:08;;;;;;;0.98;0.95;;;;;;;11.11;100.00;99935.53;7405040;19;20022;-86
2022/06/28 01:58:49;;;;;;;;;;;;;;;11.16;100.00;99932.06;7407210;19;20039;-87
2022/06/28 02:01:16;;;;;;;0.57;0.40;;;;;;;11.15;100.00;99925.72;7404894;19;20329;-86
2022/06/28 02:03:44;;;;;;;0.68;0.68;;;;;;;11.14;100.00;99928.97;7404899;19;20108;-86
2022/06/28 02:06:34;;;;;;;0.30;0.17;;;;;;;11.04;100.00;99925.50;7403753;19;20049;-86
2022/06/28 02:09:06;;;;;;;6.75;0.35;;;;;;;10.99;100.00;99928.97;7406485;19;20487;-86
2022/06/28 02:11:42;;;;;;;0.22;0.22;;;;;;;10.96;100.00;99923.56;7403280;19;20018;-86
2022/06/28 02:14:09;;;;;;;2.33;0.50;;;;;;;10.89;100.00;99927.50;7404724;19;20014;-86
2022/06/28 02:16:36;;;;;;;1.65;1.05;;;;;;;10.86;100.00;99924.88;7404030;19;20015;-87
2022/06/28 02:19:03;;;;;;;1.50;0.93;;;;;;;10.82;100.00;99929.84;7406421;19;20033;-85
2022/06/28 02:21:40;;;;;;;0.25;0.25;;;;;;;10.85;100.00;99928.91;7404733;19;20033;-86
2022/06/28 02:24:08;;;;;;;1.40;1.05;;;;;;;10.87;100.00;99920.84;7404625;19;20010;-86
2022/06/28 02:26:37;;;;;;;0.20;0.10;;;;;;;10.80;100.00;99904.50;7403904;19;20029;-86
2022/06/28 02:29:04;;;;;;;6.72;0.57;;;;;;;10.75;100.00;99907.94;7407449;19;20010;-87
2022/06/28 02:31:32;;;;;;;0.47;0.47;;;;;;;10.75;100.00;99908.69;7402599;19;20051;-86
2022/06/28 02:34:01;;;;;;;0.40;0.40;;;;;;;10.72;100.00;99903.31;7407900;19;20716;-86
2022/06/28 02:41:50;;;;;;;1.58;1.33;;;;;;;10.59;100.00;99904.31;7404682;19;20018;-86
2022/06/28 02:44:17;;;;;;;0.80;0.28;;;;;;;10.58;100.00;99902.78;7395634;19;20014;-86
2022/06/28 02:46:46;;;;;;;0.10;0.10;;;;;;;10.56;100.00;99908.06;7397483;19;20029;-87
2022/06/28 02:49:13;;;;;;;0.32;0.30;;;;;;;10.56;100.00;99899.72;7398663;19;20007;-86
2022/06/28 02:51:40;;;;;;;1.45;0.45;;;;;;;10.60;100.00;99897.53;7394537;19;20011;-87
2022/06/28 02:54:07;;;;;;;0.82;0.82;;;;;;;10.61;100.00;99899.03;7396512;19;20029;-87
2022/06/28 02:56:34;;;;;;;0.63;0.63;;;;;;;10.64;100.00;99897.31;7395958;19;20022;-87
2022/06/28 02:59:00;;;;;;;7.93;1.27;;;;;;;10.68;100.00;99891.59;7399636;19;20015;-86
2022/06/28 03:01:26;;;;;;;0.57;0.47;;;;;;;10.71;100.00;99887.84;7396723;19;20025;-86
2022/06/28 03:03:52;;;;;;;0.40;0.40;;;;;;;10.68;100.00;99886.03;7396626;19;20025;-86
2022/06/28 03:06:19;;;;;;;1.10;0.75;;;;;;;10.75;100.00;99891.22;7397768;19;20330;-86
2022/06/28 03:08:45;;;;;;;1.13;0.70;;;;;;;10.79;100.00;99887.00;7398915;19;20022;-87
2022/06/28 03:11:11;;;;;;;0.57;0.35;;;;;;;10.84;100.00;99888.38;7394985;19;20015;-87
2022/06/28 03:13:38;;;;;;;4.20;0.85;;;;;;;10.88;100.00;99894.53;7398047;19;20483;-86
2022/06/28 03:16:04;;;;;;;0.10;0.10;;;;;;;10.96;100.00;99890.88;7396177;19;20015;-87
2022/06/28 03:18:30;;;;;;;0.40;0.40;;;;;;;11.01;100.00;99895.03;7397207;19;20041;-87
2022/06/28 03:20:56;;;;;;;0.73;0.60;;;;;;;11.02;100.00;99888.22;7396206;19;20113;-87
2022/06/28 03:23:23;;;;;;;1.85;0.77;;;;;;;11.09;100.00;99887.81;7395569;19;20510;-87
2022/06/28 03:25:49;;;;;;;0.32;0.32;;;;;;;11.16;100.00;99888.25;7394998;19;20040;-86
2022/06/28 03:28:15;;;;;;;0.13;0.13;;;;;;;11.19;100.00;99881.72;7396358;19;20024;-87
2022/06/28 03:30:41;;;;;;;2.72;0.30;;;;;;;11.21;100.00;99884.00;7395957;19;20109;-87
2022/06/28 03:33:07;;;;;;;1.70;0.20;;;;;;;11.23;100.00;99881.50;7397822;19;20010;-86
2022/06/28 03:35:36;;;;;;;13.68;0.40;;;;;;;11.26;100.00;99880.56;7398209;19;20025;-86
2022/06/28 03:38:02;;;;;;;2.65;0.40;;;;;;;11.27;100.00;99890.47;7392292;19;20015;-87
2022/06/28 03:41:02;;;;;;;0.52;0.43;;;;;;;11.34;100.00;99870.56;7395678;19;20016;-86
2022/06/28 03:43:28;;;;;;;0.20;0.20;;;;;;;11.40;100.00;99879.78;7395729;19;20034;-87
2022/06/28 03:45:56;;;;;;;2.05;0.47;;;;;;;11.44;100.00;99881.16;7394867;19;20019;-86
2022/06/28 03:48:40;;;;;;;1.85;0.68;;;;;;;11.44;100.00;99880.38;7396088;19;20022;-87
2022/06/28 03:51:41;;;;;;;0.30;0.30;;;;;;;11.38;100.00;99871.16;7393367;19;20011;-86
2022/06/28 03:54:20;;;;;;;15.38;0.70;;;;;;;11.44;100.00;99878.34;7392730;19;20017;-87
2022/06/28 03:56:55;;;;;;;0.47;0.30;;;;;;;11.49;100.00;99865.75;7395325;19;20539;-86
2022/06/28 03:59:21;;;;;;;0.30;0.30;;;;;;;11.58;100.00;99867.69;7397477;19;20011;-87
2022/06/28 04:01:48;;;;;;;0.30;0.30;;;;;;;11.57;100.00;99861.31;7395997;19;20006;-87
2022/06/28 04:04:14;;;;;;;0.55;0.55;;;;;;;11.56;100.00;99859.81;7395977;19;20019;-87
2022/06/28 04:06:44;;;;;;;1.30;0.65;;;;;;;11.68;100.00;99864.31;7392950;19;20017;-86
2022/06/28 04:09:10;;;;;;;0.30;0.30;;;;;;;11.66;100.00;99861.22;7397552;19;20032;-86
2022/06/28 04:11:37;;;;;;;0.20;0.20;;;;;;;11.71;100.00;99866.16;7392959;19;20077;-86
2022/06/28 04:14:03;;;;;;;0.30;0.20;;;;;;;11.75;100.00;99861.16;7395388;19;20015;-86
2022/06/28 04:16:29;;;;;;;0.38;0.35;;;;;;;11.79;100.00;99856.13;7394829;19;20021;-86
2022/06/28 04:18:58;;;;;;;1.77;0.47;;;;;;;11.81;100.00;99859.22;7395686;19;20019;-86
2022/06/28 04:21:26;;;;;;;1.75;0.63;;;;;;;11.81;100.00;99852.84;7394202;19;20091;-86
2022/06/28 04:24:02;;;;;;;5.57;0.63;;;;;;;11.84;100.00;99844.31;7394195;19;20468;-85
2022/06/28 04:26:29;;;;;;;0.10;0.10;;;;;;;11.92;100.00;99853.03;7392980;19;20019;-86
2022/06/28 04:28:55;;;;;;;2.00;0.63;;;;;;;11.99;100.00;99853.41;7395165;19;20015;-85
2022/06/28 04:31:24;;;;;;;4.30;0.77;;;;;;;12.05;100.00;99843.09;7391859;19;20018;-86
2022/06/28 04:33:52;;;;;;;1.00;0.90;;;;;;;12.11;100.00;99838.34;7395615;19;20468;-85
2022/06/28 04:36:23;;;;;;;8.65;0.70;;;;;;;12.18;100.00;99840.72;7392987;19;20041;-86
2022/06/28 04:38:49;;;;;;;0.10;0.10;;;;;;;12.21;100.00;99836.22;7394799;19;20007;-85
2022/06/28 04:41:24;;;;;;;2.05;0.50;;;;;;;12.25;100.00;99833.19;7393738;19;20030;-85
2022/06/28 04:44:10;;;;;;;2.92;0.40;;;;;;;12.25;100.00;99831.19;7394274;19;20387;-85
2022/06/28 04:46:42;;;;;;;1.65;0.40;;;;;;;12.30;100.00;99821.34;7392617;19;20010;-86
2022/06/28 04:49:16;;;;;;;1.00;0.60;;;;;;;12.33;100.00;99825.94;7395813;19;20018;-85
2022/06/28 04:51:45;;;;;;;0.10;0.10;;;;;;;12.34;100.00;99827.47;7391501;19;20488;-86
2022/06/28 04:54:17;;;;;;;1.15;0.45;;;;;;;12.37;100.00;99818.88;7393054;19;20014;-86
2022/06/28 04:57:09;;;;;;;0.30;0.22;;;;;;;12.40;100.00;99809.53;7391334;19;20022;-86
2022/06/28 04:59:36;;;;;;;0.25;0.25;;;;;;;12.47;100.00;99813.94;7396605;19;20128;-86
2022/06/28 05:02:10;;;;;;;0.30;0.13;;;;;;;12.47;100.00;99813.94;7392936;19;20011;-85
2022/06/28 05:04:36;;;;;;;7.20;0.73;;;;;;;12.49;100.00;99806.59;7394558;19;20018;-86
2022/06/28 05:07:12;;;;;;;0.40;0.38;;;;;;;12.50;100.00;99813.72;7391338;19;20011;-86
2022/06/28 05:09:40;;;;;;;2.13;0.55;;;;;;;12.47;100.00;99811.91;7395729;19;20015;-86
2022/06/28 05:12:07;;;;;;;6.07;0.82;;;;;;;12.44;100.00;99807.31;7394332;19;20380;-86
2022/06/28 05:14:38;;;;;;;0.60;0.55;;;;;;;12.48;100.00;99802.25;7392525;19;20006;-85
2022/06/28 05:17:05;;;;;;;1.60;0.38;;;;;;;12.51;100.00;99808.91;7390737;19;20010;-85
2022/06/28 05:19:31;;;;;;;2.40;0.47;;;;;;;12.54;100.00;99807.94;7395334;19;20022;-86
2022/06/28 05:21:58;;;;;;;0.35;0.20;;;;;;;12.58;100.00;99809.22;7392079;19;20031;-85
2022/06/28 05:24:24;;;;;;;0.30;0.30;;;;;;;12.63;100.00;99810.56;7392515;19;20019;-85
2022/06/28 05:26:58;;;;;;;1.95;0.82;;;;;;;12.65;100.00;99803.22;7391475;19;20015;-85
2022/06/28 05:29:28;;;;;;;6.43;0.68;;;;;;;12.70;100.00;99804.53;7395249;19;20094;-85
2022/06/28 05:31:54;;;;;;;6.03;0.50;;;;;;;12.71;100.00;99800.50;7392044;19;20074;-86
2022/06/28 05:34:20;;;;;;;0.10;0.10;;;;;;;12.71;100.00;99794.91;7396321;19;20018;-85
2022/06/28 05:36:47;;;;;;;0.68;0.30;;;;;;;12.72;100.00;99796.44;7390326;19;20381;-86
2022/06/28 05:39:15;;;;;;;1.65;0.55;;;;;;;12.75;100.00;99801.06;7393315;19;20301;-85
2022/06/28 05:41:44;;;;;;;0.13;0.10;;;;;;;12.75;100.00;99801.06;7392928;19;20045;-86
2022/06/28 05:44:12;;;;;;;1.13;0.50;;;;;;;12.74;100.00;99799.50;7391693;19;20054;-86
2022/06/28 05:46:39;;;;;;;2.50;0.63;;;;;;;12.85;100.00;99805.22;7391833;19;20414;-85
2022/06/28 05:49:07;;;;;;;0.43;0.28;;;;;;;12.98;100.00;99797.22;7393368;19;20025;-84
2022/06/28 05:51:33;;;;;;;0.50;0.50;;;;;;;13.18;100.00;99788.03;7391152;19;20093;-86
2022/06/28 05:54:01;;;;;;;0.70;0.60;;;;;;;13.34;100.00;99790.97;7391677;19;20010;-86
2022/06/28 05:56:28;;;;;;;0.65;0.55;;;;;;;13.51;100.00;99793.91;7391201;19;20504;-85
2022/06/28 05:58:54;;;;;;;3.17;0.57;;;;;;;13.65;100.00;99790.19;7392275;19;20029;-86
2022/06/28 06:01:22;;;;;;;7.38;1.08;;;;;;;13.74;100.00;99784.41;7390892;19;20014;-85
2022/06/28 06:03:49;;;;;;;0.28;0.25;;;;;;;13.88;100.00;99793.91;7390468;19;20006;-85
2022/06/28 06:06:15;;;;;;;3.15;0.60;;;;;;;14.01;100.00;99785.84;7391823;19;20453;-77
2022/06/28 06:08:43;;;;;;;3.22;0.30;;;;;;;14.14;100.00;99788.97;7393578;19;20011;-77
2022/06/28 06:11:10;;;;;;;0.30;0.20;;;;;;;14.23;100.00;99788.75;7390716;19;20018;-77
2022/06/28 06:13:36;;;;;;;6.40;0.63;;;;;;;14.37;100.00;99787.84;7391990;19;20015;-76
2022/06/28 06:16:03;;;;;;;0.25;0.25;;;;;;;14.46;100.00;99784.81;7391518;19;20025;-77
2022/06/28 06:18:30;;;;;;;0.98;0.32;;;;;;;14.51;100.00;99783.31;7397288;19;20010;-77
2022/06/28 06:20:56;;;;;;;0.30;0.20;;;;;;;14.56;100.00;99780.50;7399998;19;20014;-77
2022/06/28 06:23:22;;;;;;;1.13;0.45;;;;;;;14.64;100.00;99781.53;7397782;19;20097;-77
2022/06/28 06:26:02;;;;;;;4.63;0.45;;;;;;;14.76;100.00;99783.13;7398570;19;20369;-77
2022/06/28 06:28:29;;;;;;;4.50;0.95;;;;;;;14.79;100.00;99770.88;7397007;19;20112;-77
2022/06/28 06:30:55;;;;;;;1.05;0.60;;;;;;;14.84;100.00;99784.16;7396040;19;20018;-77
2022/06/28 06:33:41;;;;;;;3.00;0.57;;;;;;;14.92;100.00;99773.97;7399721;19;20030;-77
2022/06/28 06:36:15;;;;;;;2.35;0.35;;;;;;;14.98;100.00;99777.56;7395749;19;20413;-77
2022/06/28 06:38:42;;;;;;;0.30;0.30;;;;;;;15.06;100.00;99777.81;7397942;19;20057;-77
2022/06/28 06:41:09;;;;;;;0.68;0.50;;;;;;;15.11;100.00;99786.25;7396965;19;20089;-77
2022/06/28 06:43:37;;;;;;;2.70;0.30;;;;;;;15.14;100.00;99785.22;7396890;19;20040;-77
2022/06/28 06:46:08;;;;;;;1.05;0.22;;;;;;;15.13;100.00;99786.50;7395410;19;20078;-77
2022/06/28 06:48:37;;;;;;;2.05;0.40;;;;;;;15.16;100.00;99787.50;7396704;19;20010;-77
2022/06/28 06:51:03;;;;;;;0.30;0.15;;;;;;;15.14;100.00;99785.22;7405441;19;20015;-77
2022/06/28 06:53:29;;;;;;;2.92;0.32;;;;;;;15.15;100.00;99792.38;7415056;19;20018;-77
2022/06/28 06:55:55;;;;;;;0.52;0.40;;;;;;;15.22;100.00;99798.75;7398474;19;20468;-77
2022/06/28 06:58:22;;;;;;;0.95;0.57;;;;;;;15.24;100.00;99799.00;7396608;19;20002;-77
2022/06/28 07:00:49;;;;;;;0.95;0.60;;;;;;;15.27;100.00;99793.13;7397611;19;20022;-77
2022/06/28 07:03:17;;;;;;;0.70;0.17;;;;;;;15.29;100.00;99781.41;7395955;19;20026;-77
2022/06/28 07:05:43;;;;;;;2.58;0.30;;;;;;;15.33;100.00;99784.72;7396171;19;20019;-86
2022/06/28 07:08:09;;;;;;;3.70;0.68;;;;;;;15.34;100.00;99787.03;7397180;19;20468;-84
2022/06/28 07:10:43;;;;;;;0.20;0.20;;;;;;;15.39;100.00;99782.69;7395215;19;20003;-85
2022/06/28 07:13:10;;;;;;;2.22;0.28;;;;;;;15.46;100.00;99782.97;7395556;19;20017;-85
2022/06/28 07:15:36;;;;;;;2.78;0.50;;;;;;;15.58;100.00;99780.91;7395975;19;20464;-86
2022/06/28 07:18:03;;;;;;;1.98;0.32;;;;;;;15.68;100.00;99782.19;7393212;19;20025;-86
2022/06/28 07:20:29;;;;;;;2.78;0.40;;;;;;;15.87;100.00;99783.19;7396487;19;20015;-85
2022/06/28 07:22:55;;;;;;;5.10;0.50;;;;;;;16.04;100.00;99780.31;7395918;19;20460;-86
2022/06/28 07:25:23;;;;;;;2.28;0.30;;;;;;;16.21;100.00;99779.00;7395946;19;20480;-86
2022/06/28 07:27:49;;;;;;;0.52;0.30;;;;;;;16.32;100.00;99784.59;7393393;19;20017;-84
2022/06/28 07:30:15;;;;;;;9.07;0.57;;;;;;;16.35;100.00;99777.91;7398850;19;20048;-85
2022/06/28 07:32:43;;;;;;;0.38;0.30;;;;;;;16.39;100.00;99772.81;7395422;19;20015;-85
2022/06/28 07:35:09;;;;;;;1.08;0.32;;;;;;;16.43;100.00;99769.72;7395058;19;20014;-87
2022/06/28 07:37:37;;;;;;;0.75;0.38;;;;;;;16.48;100.00;99778.13;7392375;19;20020;-85
2022/06/28 07:40:06;;;;;;;0.10;0.05;;;;;;;16.60;100.00;99784.50;7398715;19;20015;-85
2022/06/28 07:42:35;;;;;;;0.30;0.30;;;;;;;16.63;100.00;99775.78;7396296;19;20021;-85
2022/06/28 07:45:21;;;;;;;1.38;0.30;;;;;;;16.73;100.00;99767.03;7395806;19;20047;-84
2022/06/28 07:47:51;;;;;;;1.45;0.32;;;;;;;16.85;100.00;99762.88;7392038;19;20018;-85
2022/06/28 07:53:07;;;;;;;2.25;0.47;;;;;;;17.18;100.00;99768.25;7395326;19;20030;-84
2022/06/28 07:55:53;;;;;;;0.40;0.20;;;;;;;17.30;100.00;99758.47;7393906;19;20015;-87
2022/06/28 07:58:33;;;;;;;0.33;0.10;;;;;;;17.48;100.00;99760.59;7395764;19;20014;-86
2022/06/28 08:01:03;;;;;;;0.17;0.10;;;;;;;17.64;100.00;99758.94;7394689;19;20272;-85
2022/06/28 08:03:29;;;;;;;1.67;0.85;;;;;;;17.67;100.00;99761.47;7394306;19;20483;-85
2022/06/28 08:05:56;;;;;;;2.75;0.17;;;;;;;17.75;100.00;99751.16;7394816;19;20070;-86
2022/06/28 08:08:25;;;;;;;5.90;0.25;;;;;;;17.83;100.00;99760.53;7394664;19;20006;-85
2022/06/28 08:10:51;;;;;;;6.45;0.40;;;;;;;17.88;100.00;99756.91;7393072;19;20377;-86
2022/06/28 08:13:17;;;;;;;0.32;0.10;;;;;;;17.89;100.00;99761.25;7395185;19;20044;-86
2022/06/28 08:15:45;;;;;;;0.95;0.15;;;;;;;17.93;100.00;99752.50;7394403;19;20081;-86
2022/06/28 08:18:13;;;;;;;6.78;0.50;;;;;;;18.04;100.00;99746.75;7394495;19;20022;-83
2022/06/28 08:20:39;;;;;;;2.13;0.38;;;;;;;18.05;100.00;99749.03;7393486;19;20019;-85
2022/06/28 08:23:07;;;;;;;6.95;1.35;;;;;;;18.11;100.00;99738.47;7393730;19;20014;-85
2022/06/28 08:25:34;;;;;;;13.55;0.43;;;;;;;18.26;100.00;99745.72;7393993;19;20010;-86
2022/06/28 08:28:00;;;;;;;2.50;0.35;;;;;;;18.19;100.00;99747.84;7391568;19;20011;-85
2022/06/28 08:30:27;;;;;;;9.95;0.68;;;;;;;18.22;100.00;99756.53;7394530;19;20559;-84
2022/06/28 08:32:54;;;;;;;3.08;0.20;;;;;;;18.05;100.00;99737.75;7393122;19;20018;-84
2022/06/28 08:35:21;;;;;;;1.85;0.45;;;;;;;17.99;100.00;99737.06;7392777;19;20024;-85
2022/06/28 08:37:48;;;;;;;0.30;0.20;;;;;;;18.09;100.00;99734.63;7393311;19;20027;-85
2022/06/28 08:40:14;;;;;;;2.20;0.43;;;;;;;18.43;100.00;99737.81;7397728;19;20395;-86
2022/06/28 08:42:47;;;;;;;3.85;0.50;;;;;;;18.60;100.00;99727.09;7392778;19;20018;-85
2022/06/28 08:45:14;;;;;;;0.35;0.10;;;;;;;18.81;100.00;99736.53;7395673;19;20084;-85
2022/06/28 08:47:42;;;;;;;0.93;0.20;;;;;;;18.83;100.00;99725.47;7392031;19;20011;-85
2022/06/28 08:50:15;;;;;;;0.63;0.10;;;;;;;18.81;100.00;99726.03;7397208;19;20010;-86
2022/06/28 08:52:42;;;;;;;2.13;0.20;;;;;;;18.83;100.00;99731.13;7393654;19;20345;-84
2022/06/28 08:55:10;;;;;;;3.47;0.55;;;;;;;18.85;100.00;99722.88;7394443;19;20361;-84
2022/06/28 08:57:38;;;;;;;0.10;0.00;;;;;;;18.84;100.00;99721.38;7391756;19;20023;-84
2022/06/28 09:00:06;;;;;;;1.33;0.55;;;;;;;18.82;100.00;99723.94;7396002;19;20093;-84
2022/06/28 09:02:33;;;;;;;2.53;0.47;;;;;;;18.84;100.00;99721.38;7392670;19;20020;-84
2022/06/28 09:05:00;;;;;;;1.50;0.10;;;;;;;18.70;100.00;99717.72;7394265;19;20018;-84
2022/06/28 09:07:26;;;;;;;4.85;0.30;;;;;;;18.71;100.00;99715.66;7390966;19;20031;-84
2022/06/28 09:09:52;;;;;;;0.40;0.30;;;;;;;18.61;100.00;99720.91;7395083;19;20019;-83
2022/06/28 09:12:20;;;;;;;0.13;0.00;;;;;;;18.62;100.00;99719.63;7392234;19;20040;-84
2022/06/28 09:14:46;;;;;;;0.10;0.10;;;;;;;18.56;100.00;99713.28;7392240;19;20025;-85
2022/06/28 09:17:30;;;;;;;1.55;0.20;;;;;;;18.35;100.00;99717.16;7390712;19;20015;-84
2022/06/28 09:19:58;;;;;;;3.40;0.13;;;;;;;18.26;100.00;99714.72;7395286;19;20017;-84
2022/06/28 09:22:34;;;;;;;0.52;0.10;;;;;;;18.09;100.00;99718.50;7392827;19;20051;-85
2022/06/28 09:25:02;;;;;;;0.75;0.20;;;;;;;17.93;100.00;99708.16;7393225;19;20043;-83
2022/06/28 09:27:36;;;;;;;0.22;0.20;;;;;;;17.90;100.00;99712.06;7392701;19;20018;-85
2022/06/28 09:30:09;;;;;;;0.43;0.17;;;;;;;17.81;100.00;99709.59;7395911;19;20352;-84
2022/06/28 09:32:36;;;;;;;0.25;0.20;;;;;;;17.69;100.00;99711.03;7391834;19;20476;-85
2022/06/28 09:35:12;;;;;;;1.00;0.57;;;;;;;17.66;100.00;99709.25;7395645;19;20023;-84
2022/06/28 09:37:49;;;;;;;1.83;0.10;;;;;;;17.63;100.00;99706.75;7391326;19;20015;-84
2022/06/28 09:40:32;;;;;;;2.40;0.20;;;;;;;17.48;100.00;99709.16;7396382;19;20017;-84
2022/06/28 09:43:09;;;;;;;1.65;0.10;;;;;;;17.32;100.00;99699.59;7392542;19;20014;-84
2022/06/28 09:45:37;;;;;;;2.78;0.45;;;;;;;17.32;100.00;99691.13;7392557;19;20086;-84
2022/06/28 09:48:04;;;;;;;1.27;0.68;;;;;;;17.47;100.00;99697.13;7388691;19;20015;-84
2022/06/28 09:50:38;;;;;;;3.08;0.20;;;;;;;17.50;100.00;99693.28;7391419;19;20019;-84
2022/06/28 09:53:05;;;;;;;0.88;0.30;;;;;;;17.44;100.00;99695.38;7396276;19;20019;-84
2022/06/28 09:55:32;;;;;;;3.42;0.50;;;;;;;17.36;100.00;99691.59;7399418;19;20023;-84
2022/06/28 09:58:01;;;;;;;9.68;0.50;;;;;;;17.35;100.00;99688.03;7395169;19;20037;-83
2022/06/28 10:00:28;;;;;;;4.63;0.22;;;;;;;17.36;100.00;99694.41;7399382;19;20041;-84
2022/06/28 10:02:57;;;;;;;2.10;0.55;;;;;;;17.45;100.00;99685.63;7397517;19;20011;-84
2022/06/28 10:05:24;;;;;;;0.30;0.30;;;;;;;17.48;100.00;99690.19;7399525;19;20010;-83
2022/06/28 10:07:51;;;;;;;5.32;0.30;;;;;;;17.56;100.00;99691.19;7394858;19;20421;-84
2022/06/28 10:10:17;;;;;;;1.20;0.52;;;;;;;17.90;100.00;99672.63;7402244;19;20018;-83
2022/06/28 10:15:35;;;;;;;0.10;0.10;;;;;;;18.74;100.00;99664.56;7398877;19;20023;-84
2022/06/28 10:18:08;;;;;;;0.57;0.10;;;;;;;18.85;100.00;99669.25;7393999;19;20014;-84
2022/06/28 10:20:39;;;;;;;1.95;0.20;;;;;;;18.75;100.00;99668.16;7398404;19;20467;-84
2022/06/28 10:23:25;;;;;;;1.80;0.20;;;;;;;18.60;100.00;99662.22;7398549;19;20018;-84
2022/06/28 10:26:14;;;;;;;2.75;0.65;;;;;;;18.60;100.00;99667.88;7397482;19;20341;-85
2022/06/28 10:28:48;;;;;;;1.98;0.25;;;;;;;18.52;100.00;99667.72;7399830;19;20122;-83
2022/06/28 10:31:23;;;;;;;1.08;0.73;;;;;;;18.44;100.00;99666.81;7396929;19;20094;-84
2022/06/28 10:33:51;;;;;;;0.80;0.22;;;;;;;18.28;100.00;99659.31;7400458;19;20019;-83
2022/06/28 10:36:19;;;;;;;1.58;0.22;;;;;;;18.21;100.00;99656.34;7397400;19;20350;-83
2022/06/28 10:39:09;;;;;;;3.03;0.47;;;;;;;18.19;100.00;99665.34;7399062;19;20344;-83
2022/06/28 10:42:05;;;;;;;0.73;0.40;;;;;;;18.13;100.00;99654.13;7396641;19;20346;-84
2022/06/28 10:44:32;;;;;;;1.88;0.32;;;;;;;18.28;100.00;99652.94;7397795;19;20268;-84
2022/06/28 10:47:01;;;;;;;2.22;0.15;;;;;;;18.54;100.00;99641.78;7395821;19;20018;-86
2022/06/28 10:49:42;;;;;;;1.95;0.35;;;;;;;18.73;100.00;99632.00;7399656;19;20014;-86
2022/06/28 10:52:16;;;;;;;0.38;0.10;;;;;;;19.02;100.00;99633.06;7395467;19;20015;-84
2022/06/28 10:54:51;;;;;;;4.10;0.73;;;;;;;19.41;100.00;99632.38;7396625;19;20050;-85
2022/06/28 10:57:23;;;;;;;1.40;0.20;;;;;;;19.54;100.00;99632.41;7394733;19;20352;-84
2022/06/28 10:59:51;;;;;;;1.73;0.22;;;;;;;19.67;100.00;99627.50;7401164;19;20018;-84
2022/06/28 11:02:18;;;;;;;6.13;0.10;;;;;;;19.79;100.00;99638.59;7397048;19;20038;-84
2022/06/28 11:04:45;;;;;;;1.17;0.10;;;;;;;19.83;100.00;99630.53;7394894;19;20018;-84
2022/06/28 11:07:23;;;;;;;0.20;0.10;;;;;;;19.90;100.00;99630.66;7395076;19;20019;-85
2022/06/28 11:10:06;;;;;;;3.55;0.22;;;;;;;20.13;100.00;99628.09;7400415;19;20017;-83
2022/06/28 11:12:35;;;;;;;3.45;0.35;;;;;;;20.32;100.00;99620.25;7395824;19;20025;-83
2022/06/28 11:15:22;;;;;;;6.53;0.10;;;;;;;20.39;100.00;99622.41;7395910;19;20035;-83
2022/06/28 11:17:48;;;;;;;5.03;0.30;;;;;;;20.40;100.00;99626.75;7392817;19;20095;-84
2022/06/28 11:20:21;;;;;;;0.80;0.20;;;;;;;20.15;100.00;99631.16;7401366;19;20037;-82
2022/06/28 11:22:49;;;;;;;0.10;0.03;;;;;;;20.14;100.00;99635.28;7397314;19;20523;-84
2022/06/28 11:25:18;;;;;;;0.70;0.32;;;;;;;19.98;100.00;99627.91;7395123;19;20025;-84
2022/06/28 11:27:58;;;;;;;3.03;0.30;;;;;;;19.77;100.00;99622.19;7393286;19;20018;-84
2022/06/28 11:30:29;;;;;;;4.53;0.57;;;;;;;19.65;100.00;99632.94;7398786;19;20019;-83
2022/06/28 11:32:57;;;;;;;0.60;0.13;;;;;;;19.61;100.00;99629.69;7395982;19;20015;-84
2022/06/28 11:35:27;;;;;;;6.43;0.13;;;;;;;19.63;100.00;99631.97;7395017;19;20010;-84
2022/06/28 11:38:02;;;;;;;0.57;0.17;;;;;;;19.71;100.00;99632.09;7392716;19;20019;-85
2022/06/28 11:40:38;;;;;;;0.28;0.10;;;;;;;19.77;100.00;99627.09;7394666;19;20022;-84
2022/06/28 11:43:07;;;;;;;0.80;0.15;;;;;;;19.79;100.00;99625.22;7394483;19;20014;-85
2022/06/28 11:45:35;;;;;;;0.20;0.00;;;;;;;20.07;100.00;99619.75;7396125;19;20031;-85
2022/06/28 11:48:04;;;;;;;2.55;0.25;;;;;;;20.62;100.00;99620.56;7393875;19;20018;-85
2022/06/28 11:50:45;;;;;;;0.47;0.38;;;;;;;21.56;100.00;99611.72;7393655;19;20031;-84